Time;durP1;ratioP1;P1;durP2;ratioP2;P2;SDS_P1;SDS_P2;PMS_P1;PMS_P2;Temp;Humidity;BMP_temperature;BMP_pressure;BME280_temperature;BME280_humidity;BME280_pressure;Samples;Min_cycle;Max_cycle;Signal;HPM_P1;HPM_P2
2022/01/27 00:01:01;;;;;;;16.85;7.93;;;1.00;99.90;;;;;;5154136;27;20851;-58
2022/01/27 00:03:32;;;;;;;16.95;7.47;;;1.00;99.90;;;;;;5159895;27;20513;-57
2022/01/27 00:06:05;;;;;;;17.25;7.15;;;1.10;99.90;;;;;;5159816;27;20424;-58
2022/01/27 00:08:40;;;;;;;17.83;7.70;;;1.10;99.90;;;;;;5159531;27;20769;-58
2022/01/27 00:11:12;;;;;;;15.85;6.65;;;1.30;99.90;;;;;;5159661;27;20500;-58
2022/01/27 00:13:45;;;;;;;18.75;7.57;;;1.40;99.90;;;;;;5159491;27;20413;-58
2022/01/27 00:16:16;;;;;;;17.80;7.55;;;1.30;99.90;;;;;;5157998;27;20420;-58
2022/01/27 00:18:46;;;;;;;15.10;6.20;;;1.30;99.90;;;;;;5157655;27;20801;-57
2022/01/27 00:21:15;;;;;;;17.42;7.18;;;1.20;99.90;;;;;;5158105;27;20452;-58
2022/01/27 00:23:45;;;;;;;17.67;7.80;;;1.30;99.90;;;;;;5158289;27;20413;-57
2022/01/27 00:26:12;;;;;;;17.92;7.55;;;1.40;99.90;;;;;;5158229;27;20416;-58
2022/01/27 00:28:39;;;;;;;14.13;6.13;;;1.50;99.90;;;;;;5157248;27;20448;-57
2022/01/27 00:31:06;;;;;;;16.35;7.90;;;1.60;99.90;;;;;;5157844;27;20456;-57
2022/01/27 00:33:33;;;;;;;21.55;7.70;;;1.60;99.90;;;;;;5157799;27;20828;-57
2022/01/27 00:36:00;;;;;;;16.42;7.32;;;1.50;99.90;;;;;;5157839;27;20471;-56
2022/01/27 00:38:28;;;;;;;17.00;8.23;;;1.50;99.90;;;;;;5157514;27;20465;-57
2022/01/27 00:40:55;;;;;;;21.20;7.25;;;1.60;99.90;;;;;;5158138;27;20520;-57
2022/01/27 00:43:23;;;;;;;18.42;7.70;;;1.50;99.90;;;;;;5158948;27;20455;-58
2022/01/27 00:45:50;;;;;;;18.27;8.50;;;1.40;99.90;;;;;;5159038;27;20839;-57
2022/01/27 00:48:17;;;;;;;17.95;8.25;;;1.40;99.90;;;;;;5159224;27;20409;-57
2022/01/27 00:50:48;;;;;;;19.90;8.23;;;1.50;99.90;;;;;;5159160;27;20460;-56
2022/01/27 00:53:29;;;;;;;22.05;9.82;;;1.30;99.90;;;;;;5158955;27;20499;-55
2022/01/27 00:56:06;;;;;;;16.58;6.90;;;1.20;99.90;;;;;;5159024;27;20519;-56
2022/01/27 00:58:46;;;;;;;19.60;7.35;;;1.00;99.90;;;;;;5158587;27;20458;-56
2022/01/27 01:01:16;;;;;;;15.60;6.70;;;0.90;99.90;;;;;;5158659;27;20429;-56
2022/01/27 01:03:46;;;;;;;15.50;6.90;;;0.90;99.90;;;;;;5157796;27;20409;-57
2022/01/27 01:06:24;;;;;;;17.98;8.70;;;1.10;99.90;;;;;;5155231;27;20419;-57
2022/01/27 01:14:44;;;;;;;19.45;8.63;;;1.30;99.90;;;;;;5113299;27;20673;-56
2022/01/27 01:17:28;;;;;;;18.48;8.32;;;1.10;99.90;;;;;;5151346;27;20428;-57
2022/01/27 01:30:57;;;;;;;14.87;7.23;;;1.20;99.90;;;;;;5154619;27;20500;-57
2022/01/27 01:33:32;;;;;;;22.15;8.85;;;1.20;99.90;;;;;;5155040;27;20412;-57
2022/01/27 01:36:12;;;;;;;19.50;7.70;;;1.20;99.90;;;;;;5156364;27;20540;-56
2022/01/27 01:38:39;;;;;;;19.48;8.38;;;1.30;99.90;;;;;;5157669;27;20438;-56
2022/01/27 01:41:06;;;;;;;17.55;7.53;;;1.30;99.90;;;;;;5157018;27;20467;-57
2022/01/27 01:43:34;;;;;;;16.40;6.00;;;1.20;99.90;;;;;;5157893;27;20438;-56
2022/01/27 01:46:01;;;;;;;16.27;7.65;;;1.30;99.90;;;;;;5157786;27;20851;-56
2022/01/27 01:48:28;;;;;;;14.70;6.20;;;1.30;99.90;;;;;;5157630;27;20483;-56
2022/01/27 01:50:57;;;;;;;16.48;7.22;;;1.20;99.90;;;;;;5157712;27;20864;-56
2022/01/27 01:53:24;;;;;;;15.23;6.30;;;1.20;99.90;;;;;;5157996;27;20434;-57
2022/01/27 01:55:51;;;;;;;12.38;5.93;;;1.20;99.90;;;;;;5157548;27;20448;-56
2022/01/27 01:58:18;;;;;;;13.80;6.75;;;1.30;99.90;;;;;;5157608;27;20460;-56
2022/01/27 02:00:46;;;;;;;15.32;6.32;;;1.50;99.90;;;;;;5157783;27;20424;-56
2022/01/27 02:03:13;;;;;;;13.82;5.40;;;1.50;99.90;;;;;;5157376;27;20448;-54
2022/01/27 02:05:46;;;;;;;11.43;6.38;;;1.60;99.90;;;;;;5157145;27;20485;-56
2022/01/27 02:19:15;;;;;;;15.48;7.75;;;1.50;99.90;;;;;;5155090;27;20431;-57
2022/01/27 02:21:48;;;;;;;14.00;6.43;;;1.40;99.90;;;;;;5156362;27;20776;-57
2022/01/27 02:24:16;;;;;;;15.50;7.75;;;1.30;99.90;;;;;;5156781;27;20409;-57
2022/01/27 02:26:43;;;;;;;12.82;6.80;;;1.10;99.90;;;;;;5149023;27;20448;-55
2022/01/27 02:29:11;;;;;;;17.83;7.53;;;1.00;99.90;;;;;;5157118;27;20501;-56
2022/01/27 02:31:38;;;;;;;16.33;6.88;;;0.90;99.90;;;;;;5157282;27;20785;-57
2022/01/27 02:34:06;;;;;;;14.85;7.07;;;0.80;99.90;;;;;;5156911;27;20459;-57
2022/01/27 02:36:34;;;;;;;17.10;7.30;;;0.80;99.90;;;;;;5157273;27;20514;-57
2022/01/27 02:39:03;;;;;;;15.65;6.82;;;0.90;99.90;;;;;;5157072;27;20425;-57
2022/01/27 02:41:36;;;;;;;18.98;7.40;;;1.00;99.90;;;;;;5157435;27;20420;-57
2022/01/27 02:44:03;;;;;;;15.77;7.13;;;1.20;99.90;;;;;;5156826;27;20429;-57
2022/01/27 02:46:35;;;;;;;13.25;6.30;;;1.40;99.90;;;;;;5157308;27;20513;-57
2022/01/27 02:49:02;;;;;;;15.20;6.75;;;1.60;99.90;;;;;;5156853;27;20413;-57
2022/01/27 02:51:29;;;;;;;15.63;6.93;;;1.60;99.90;;;;;;5156766;27;20716;-57
2022/01/27 02:53:58;;;;;;;14.18;6.78;;;1.60;99.90;;;;;;5156692;27;20448;-57
2022/01/27 02:56:26;;;;;;;15.00;7.55;;;1.60;99.90;;;;;;5156193;27;20428;-57
2022/01/27 02:58:53;;;;;;;14.70;6.47;;;1.60;99.90;;;;;;5156994;27;20447;-58
2022/01/27 03:01:21;;;;;;;14.52;7.30;;;1.50;99.90;;;;;;5156949;27;20469;-57
2022/01/27 03:03:48;;;;;;;13.73;6.85;;;1.40;99.90;;;;;;5156886;27;20413;-55
2022/01/27 03:06:15;;;;;;;11.20;5.53;;;1.40;99.90;;;;;;5156820;27;20760;-55
2022/01/27 03:08:42;;;;;;;14.52;6.95;;;1.40;99.90;;;;;;5156749;27;20477;-57
2022/01/27 03:11:14;;;;;;;12.02;5.10;;;1.40;99.90;;;;;;5156956;27;20468;-57
2022/01/27 03:13:42;;;;;;;10.35;5.07;;;1.50;99.90;;;;;;5156566;27;20455;-56
2022/01/27 03:16:10;;;;;;;9.60;5.63;;;1.60;99.90;;;;;;5156582;27;20812;-57
2022/01/27 03:18:37;;;;;;;13.10;6.37;;;1.70;99.90;;;;;;5156797;27;20871;-58
2022/01/27 03:21:05;;;;;;;11.27;5.50;;;1.70;99.90;;;;;;5156442;27;20456;-57
2022/01/27 03:23:33;;;;;;;12.10;6.00;;;1.60;99.90;;;;;;5156800;27;20425;-57
2022/01/27 03:26:00;;;;;;;10.00;4.57;;;1.40;99.90;;;;;;5156685;27;20708;-57
2022/01/27 03:28:29;;;;;;;9.98;5.05;;;1.50;99.90;;;;;;5156873;27;20477;-57
2022/01/27 03:30:57;;;;;;;10.90;5.13;;;1.50;99.90;;;;;;5156388;27;20449;-57
2022/01/27 03:33:24;;;;;;;10.25;4.68;;;1.60;99.90;;;;;;5156477;27;20445;-58
2022/01/27 03:35:51;;;;;;;11.23;5.18;;;1.70;99.90;;;;;;5156584;27;20409;-57
2022/01/27 03:38:18;;;;;;;9.93;5.00;;;1.80;99.90;;;;;;5156285;27;20470;-57
2022/01/27 03:40:45;;;;;;;10.50;5.72;;;1.90;99.90;;;;;;5156667;27;20413;-57
2022/01/27 03:43:12;;;;;;;11.35;5.10;;;1.90;99.90;;;;;;5156420;27;20424;-57
2022/01/27 03:45:39;;;;;;;9.88;5.28;;;1.70;99.90;;;;;;5156476;27;20909;-55
2022/01/27 03:48:08;;;;;;;10.88;5.25;;;1.80;99.90;;;;;;5156972;27;20448;-56
2022/01/27 03:50:35;;;;;;;10.00;5.35;;;1.70;99.90;;;;;;5156111;27;20417;-56
2022/01/27 03:53:03;;;;;;;12.68;4.85;;;1.70;99.90;;;;;;5156443;27;20463;-57
2022/01/27 03:55:30;;;;;;;11.88;4.97;;;1.30;99.90;;;;;;5156173;27;20731;-57
2022/01/27 03:57:57;;;;;;;12.73;5.32;;;1.50;99.90;;;;;;5156406;27;20916;-57
2022/01/27 04:00:24;;;;;;;12.10;5.57;;;1.60;99.90;;;;;;5156203;27;20452;-57
2022/01/27 04:03:01;;;;;;;11.60;5.80;;;1.50;99.90;;;;;;5157301;27;20456;-57
2022/01/27 04:05:35;;;;;;;10.82;5.47;;;1.20;99.90;;;;;;5160084;27;20417;-57
2022/01/27 04:08:03;;;;;;;11.25;5.13;;;1.00;99.90;;;;;;5160140;27;20425;-56
2022/01/27 04:10:30;;;;;;;12.85;5.30;;;1.20;99.90;;;;;;5160265;27;20420;-57
2022/01/27 04:12:57;;;;;;;13.70;6.20;;;1.20;99.90;;;;;;5159770;27;20851;-57
2022/01/27 04:15:24;;;;;;;12.85;5.47;;;1.10;99.90;;;;;;5160185;27;20516;-56
2022/01/27 04:17:52;;;;;;;11.43;5.68;;;0.80;99.90;;;;;;5159042;27;20475;-57
2022/01/27 04:20:19;;;;;;;11.35;5.05;;;0.60;99.90;;;;;;5158158;27;20448;-57
2022/01/27 04:22:48;;;;;;;12.25;6.38;;;0.80;99.90;;;;;;5158206;27;20421;-57
2022/01/27 04:25:16;;;;;;;12.95;5.75;;;1.00;99.90;;;;;;5158526;27;20432;-55
2022/01/27 04:27:48;;;;;;;13.73;6.43;;;1.00;99.90;;;;;;5158392;27;20578;-57
2022/01/27 04:30:17;;;;;;;10.90;5.60;;;1.00;99.90;;;;;;5158905;27;20594;-55
2022/01/27 04:32:48;;;;;;;11.43;6.18;;;1.30;99.90;;;;;;5159316;27;20956;-55
2022/01/27 04:35:19;;;;;;;12.57;6.07;;;1.30;99.90;;;;;;5159493;27;20416;-54
2022/01/27 04:37:59;;;;;;;11.80;6.00;;;1.50;99.90;;;;;;5159727;27;20766;-56
2022/01/27 04:40:32;;;;;;;14.13;6.20;;;1.50;99.90;;;;;;5159658;27;20419;-56
2022/01/27 04:43:06;;;;;;;11.47;6.20;;;1.50;99.90;;;;;;5159199;27;20477;-55
2022/01/27 04:45:41;;;;;;;13.30;6.30;;;1.40;99.90;;;;;;5159396;27;20413;-57
2022/01/27 04:48:13;;;;;;;14.13;6.55;;;1.40;99.90;;;;;;5158626;27;20727;-57
2022/01/27 04:50:40;;;;;;;13.35;6.28;;;1.40;99.90;;;;;;5159074;27;20512;-57
2022/01/27 04:53:14;;;;;;;14.23;6.68;;;1.30;99.90;;;;;;5159332;27;20424;-56
2022/01/27 04:55:41;;;;;;;12.80;5.35;;;1.20;99.90;;;;;;5158826;27;20421;-55
2022/01/27 04:58:13;;;;;;;12.85;6.43;;;1.20;99.90;;;;;;5158895;27;20432;-56
2022/01/27 05:00:40;;;;;;;12.70;6.50;;;0.90;99.90;;;;;;5158383;27;20501;-56
2022/01/27 05:03:19;;;;;;;14.88;6.57;;;0.70;99.90;;;;;;5158791;27;20437;-55
2022/01/27 05:05:47;;;;;;;13.27;6.13;;;0.70;99.90;;;;;;5158923;27;20789;-55
2022/01/27 05:08:18;;;;;;;13.45;6.32;;;1.00;99.90;;;;;;5158579;27;20453;-56
2022/01/27 05:10:55;;;;;;;13.85;6.57;;;1.20;99.90;;;;;;5158585;27;20412;-56
2022/01/27 05:13:24;;;;;;;15.20;7.00;;;1.30;99.90;;;;;;5158875;27;20484;-56
2022/01/27 05:15:51;;;;;;;17.48;7.20;;;1.00;99.90;;;;;;5158608;27;20409;-55
2022/01/27 05:18:19;;;;;;;14.65;7.03;;;1.10;99.90;;;;;;5158255;27;20867;-56
2022/01/27 05:20:46;;;;;;;16.45;6.80;;;1.20;99.90;;;;;;5155860;27;20452;-56
2022/01/27 05:23:16;;;;;;;13.95;6.75;;;1.20;99.90;;;;;;5156414;27;20441;-56
2022/01/27 05:25:43;;;;;;;16.90;7.22;;;1.20;99.90;;;;;;5156462;27;20745;-57
2022/01/27 05:28:10;;;;;;;15.68;8.27;;;1.40;99.90;;;;;;5156165;27;20512;-56
2022/01/27 05:30:37;;;;;;;15.55;7.90;;;1.40;99.90;;;;;;5155320;27;20761;-57
2022/01/27 05:33:04;;;;;;;15.77;8.13;;;1.20;99.90;;;;;;5155367;27;20802;-56
2022/01/27 05:35:32;;;;;;;18.13;9.35;;;1.20;99.90;;;;;;5155657;27;20517;-55
2022/01/27 05:37:59;;;;;;;18.27;9.20;;;1.20;99.90;;;;;;5154603;27;20471;-54
2022/01/27 05:40:27;;;;;;;16.60;8.55;;;1.10;99.90;;;;;;5155992;27;20481;-56
2022/01/27 05:42:54;;;;;;;15.87;7.70;;;0.90;99.90;;;;;;5156083;27;20913;-55
2022/01/27 05:45:21;;;;;;;16.38;9.15;;;0.80;99.90;;;;;;5156644;27;20469;-56
2022/01/27 05:47:48;;;;;;;18.65;9.10;;;0.80;99.90;;;;;;5156754;27;20779;-56
2022/01/27 05:50:15;;;;;;;17.40;9.20;;;0.70;99.90;;;;;;5156721;27;20500;-56
2022/01/27 05:52:42;;;;;;;16.08;8.40;;;0.70;99.90;;;;;;5156942;27;20532;-55
2022/01/27 05:55:09;;;;;;;19.52;9.88;;;0.60;99.90;;;;;;5156514;27;20520;-56
2022/01/27 05:57:38;;;;;;;17.00;8.38;;;0.70;99.90;;;;;;5157183;27;20440;-55
2022/01/27 06:00:07;;;;;;;16.30;8.52;;;0.70;99.90;;;;;;5157048;27;20878;-56
2022/01/27 06:02:34;;;;;;;18.80;9.77;;;0.90;99.90;;;;;;5157551;27;20468;-57
2022/01/27 06:05:02;;;;;;;15.73;7.70;;;1.00;99.90;;;;;;5156653;27;20420;-56
2022/01/27 06:07:30;;;;;;;12.48;6.90;;;1.10;99.90;;;;;;5156077;27;20839;-55
2022/01/27 06:09:57;;;;;;;18.50;9.63;;;1.20;99.90;;;;;;5155683;27;20697;-55
2022/01/27 06:12:24;;;;;;;20.02;10.00;;;1.10;99.90;;;;;;5155458;27;20476;-55
2022/01/27 06:14:52;;;;;;;14.95;8.38;;;0.90;99.90;;;;;;5154628;27;20455;-56
2022/01/27 06:17:19;;;;;;;15.05;7.50;;;0.80;99.90;;;;;;5153402;27;20456;-56
2022/01/27 06:19:47;;;;;;;15.77;9.02;;;1.30;99.90;;;;;;5154505;27;20461;-56
2022/01/27 06:22:16;;;;;;;17.08;8.38;;;1.70;99.90;;;;;;5154601;27;20432;-57
2022/01/27 06:24:45;;;;;;;15.30;7.47;;;1.60;99.90;;;;;;5154550;27;20634;-53
2022/01/27 06:27:14;;;;;;;14.63;8.30;;;1.50;99.90;;;;;;5154082;27;20511;-56
2022/01/27 06:29:41;;;;;;;16.23;8.45;;;1.50;99.90;;;;;;5155349;27;20409;-60
2022/01/27 06:32:09;;;;;;;16.17;8.27;;;1.50;99.90;;;;;;5155528;27;20852;-57
2022/01/27 06:34:36;;;;;;;18.30;8.50;;;1.50;99.90;;;;;;5155185;27;20412;-56
2022/01/27 06:37:04;;;;;;;15.60;7.60;;;1.30;99.90;;;;;;5155117;27;20447;-56
2022/01/27 06:39:30;;;;;;;16.35;7.60;;;1.10;99.90;;;;;;5155501;27;20463;-56
2022/01/27 06:41:58;;;;;;;16.55;7.55;;;1.00;99.90;;;;;;5154675;27;20452;-55
2022/01/27 06:44:24;;;;;;;12.93;6.83;;;0.80;99.90;;;;;;5154683;27;20441;-55
2022/01/27 06:46:51;;;;;;;16.80;6.93;;;0.80;99.90;;;;;;5154909;27;20456;-52
2022/01/27 06:49:20;;;;;;;16.02;7.50;;;1.00;99.90;;;;;;5155950;27;20484;-57
2022/01/27 06:51:47;;;;;;;15.32;7.78;;;1.10;99.90;;;;;;5154181;27;20456;-57
2022/01/27 06:54:16;;;;;;;15.45;7.90;;;1.10;99.90;;;;;;5155430;27;20762;-55
2022/01/27 06:56:42;;;;;;;14.35;7.78;;;1.10;99.90;;;;;;5154011;27;20425;-56
2022/01/27 06:59:10;;;;;;;15.27;8.07;;;1.10;99.90;;;;;;5155176;27;20464;-56
2022/01/27 07:01:37;;;;;;;14.63;6.93;;;1.20;99.90;;;;;;5154314;27;20472;-57
2022/01/27 07:04:04;;;;;;;13.90;6.85;;;1.30;99.90;;;;;;5154502;27;20497;-56
2022/01/27 07:06:34;;;;;;;14.30;6.95;;;1.00;99.90;;;;;;5153958;27;20448;-55
2022/01/27 07:09:01;;;;;;;15.93;7.40;;;0.90;99.90;;;;;;5155659;27;20760;-54
2022/01/27 07:11:28;;;;;;;16.15;7.57;;;1.30;99.90;;;;;;5154551;27;20452;-57
2022/01/27 07:13:55;;;;;;;14.20;6.13;;;1.40;99.90;;;;;;5154384;27;20443;-52
2022/01/27 07:16:22;;;;;;;14.02;7.20;;;1.90;99.90;;;;;;5154104;27;20416;-56
2022/01/27 07:18:52;;;;;;;13.75;7.18;;;1.90;99.90;;;;;;5153212;27;20822;-57
2022/01/27 07:21:19;;;;;;;13.05;7.20;;;1.80;99.90;;;;;;5152904;27;20490;-56
2022/01/27 07:23:47;;;;;;;9.40;5.45;;;1.70;99.90;;;;;;5153785;27;20409;-55
2022/01/27 07:26:15;;;;;;;11.98;6.70;;;1.50;99.90;;;;;;5154228;27;20790;-56
2022/01/27 07:28:43;;;;;;;12.32;5.85;;;1.30;99.90;;;;;;5154707;27;20428;-54
2022/01/27 07:31:10;;;;;;;10.70;5.50;;;0.90;99.90;;;;;;5152940;27;20495;-57
2022/01/27 07:33:37;;;;;;;12.90;5.93;;;0.70;99.90;;;;;;5153592;27;20460;-55
2022/01/27 07:36:05;;;;;;;13.00;6.73;;;0.60;99.90;;;;;;5154888;27;20457;-56
2022/01/27 07:38:32;;;;;;;13.18;5.25;;;0.60;99.90;;;;;;5156554;27;20513;-57
2022/01/27 07:41:00;;;;;;;12.82;5.75;;;0.70;99.90;;;;;;5157283;27;20824;-56
2022/01/27 07:43:27;;;;;;;13.73;6.78;;;0.80;99.90;;;;;;5157499;27;20456;-55
2022/01/27 07:45:59;;;;;;;11.43;5.65;;;0.70;99.90;;;;;;5157827;27;20440;-52
2022/01/27 07:48:26;;;;;;;11.55;5.32;;;0.80;99.90;;;;;;5158428;27;20445;-59
2022/01/27 07:50:54;;;;;;;14.60;6.53;;;0.80;99.90;;;;;;5157825;27;20562;-59
2022/01/27 07:53:21;;;;;;;17.65;7.10;;;0.70;99.90;;;;;;5158345;27;20456;-58
2022/01/27 07:55:48;;;;;;;12.48;6.63;;;0.80;99.90;;;;;;5158904;27;20447;-59
2022/01/27 07:58:17;;;;;;;17.23;7.13;;;0.70;99.90;;;;;;5158116;27;20451;-59
2022/01/27 08:00:44;;;;;;;15.77;7.60;;;0.70;99.90;;;;;;5158892;27;20598;-59
2022/01/27 08:03:11;;;;;;;15.27;7.57;;;0.60;99.90;;;;;;5156394;27;20484;-58
2022/01/27 08:05:38;;;;;;;16.85;8.10;;;0.60;99.90;;;;;;5157218;27;20459;-58
2022/01/27 08:08:05;;;;;;;17.02;6.68;;;0.60;99.90;;;;;;5156739;27;20416;-59
2022/01/27 08:10:37;;;;;;;16.40;6.78;;;0.70;99.90;;;;;;5155155;27;20470;-58
2022/01/27 08:13:04;;;;;;;16.17;7.50;;;0.60;99.90;;;;;;5155272;27;20424;-59
2022/01/27 08:15:33;;;;;;;17.67;7.60;;;0.60;99.90;;;;;;5156848;27;20448;-59
2022/01/27 08:18:00;;;;;;;13.18;5.57;;;0.60;99.90;;;;;;5156281;27;20417;-59
2022/01/27 08:20:28;;;;;;;13.35;6.18;;;0.60;99.90;;;;;;5157198;27;20871;-59
2022/01/27 08:22:56;;;;;;;13.87;6.67;;;0.60;99.90;;;;;;5158582;27;20530;-59
2022/01/27 08:25:24;;;;;;;14.65;6.70;;;1.10;99.90;;;;;;5157928;27;20836;-52
2022/01/27 08:27:54;;;;;;;13.05;6.25;;;0.70;99.90;;;;;;5158116;27;20448;-54
2022/01/27 08:30:24;;;;;;;14.27;5.75;;;0.60;99.90;;;;;;5158203;27;20878;-55
2022/01/27 08:32:58;;;;;;;16.15;6.60;;;0.90;99.90;;;;;;5158609;27;20416;-54
2022/01/27 08:35:26;;;;;;;16.98;7.15;;;1.10;99.90;;;;;;5158340;27;20427;-51
2022/01/27 08:37:53;;;;;;;16.60;7.22;;;1.30;99.90;;;;;;5157670;27;20421;-51
2022/01/27 08:40:21;;;;;;;16.75;7.50;;;1.30;99.90;;;;;;5158097;27;20421;-52
2022/01/27 08:42:48;;;;;;;14.77;6.60;;;1.60;99.90;;;;;;5157005;27;20424;-54
2022/01/27 08:45:17;;;;;;;18.75;7.80;;;1.70;99.90;;;;;;5157369;27;20449;-54
2022/01/27 08:47:45;;;;;;;13.73;6.72;;;1.70;99.90;;;;;;5157762;27;20460;-54
2022/01/27 08:50:15;;;;;;;15.77;6.88;;;1.70;99.90;;;;;;5157783;27;20409;-54
2022/01/27 08:52:43;;;;;;;17.17;6.22;;;1.60;99.90;;;;;;5157203;27;20552;-54
2022/01/27 08:55:12;;;;;;;15.82;7.22;;;1.50;99.90;;;;;;5156169;27;20832;-52
2022/01/27 08:57:39;;;;;;;14.27;6.25;;;1.50;99.90;;;;;;5155285;27;20457;-54
2022/01/27 09:00:09;;;;;;;15.93;6.75;;;1.70;99.90;;;;;;5155681;27;20516;-55
2022/01/27 09:02:36;;;;;;;14.05;5.82;;;1.90;99.90;;;;;;5155974;27;20464;-56
2022/01/27 09:05:04;;;;;;;13.20;7.50;;;1.50;99.90;;;;;;5157659;27;20510;-55
2022/01/27 09:07:34;;;;;;;15.05;6.35;;;1.00;99.90;;;;;;5157213;27;20694;-52
2022/01/27 09:10:01;;;;;;;16.90;6.30;;;1.10;99.90;;;;;;5140266;27;20431;-52
2022/01/27 09:12:28;;;;;;;13.23;6.18;;;1.20;99.90;;;;;;5141813;27;20432;-55
2022/01/27 09:14:56;;;;;;;12.50;5.20;;;1.60;99.90;;;;;;5133428;27;20522;-54
2022/01/27 09:17:26;;;;;;;13.30;5.53;;;2.00;99.90;;;;;;5132539;27;20529;-52
2022/01/27 09:19:54;;;;;;;16.17;6.60;;;2.10;99.90;;;;;;5148113;27;20425;-52
2022/01/27 09:22:22;;;;;;;14.93;6.13;;;1.70;99.90;;;;;;5152486;27;20449;-52
2022/01/27 09:24:52;;;;;;;14.23;5.72;;;1.20;99.90;;;;;;5154082;27;20412;-51
2022/01/27 09:27:20;;;;;;;14.57;6.15;;;0.90;99.90;;;;;;5154341;27;20504;-52
2022/01/27 09:29:47;;;;;;;18.85;6.43;;;0.70;99.90;;;;;;5155484;27;20727;-50
2022/01/27 09:32:15;;;;;;;12.10;4.72;;;0.70;99.90;;;;;;5155271;27;20428;-54
2022/01/27 09:34:42;;;;;;;16.27;5.90;;;0.60;99.90;;;;;;5156553;27;20456;-53
2022/01/27 09:37:10;;;;;;;14.18;4.82;;;0.60;99.90;;;;;;5155161;27;20501;-50
2022/01/27 09:39:37;;;;;;;12.18;4.60;;;0.70;99.90;;;;;;5156703;27;20429;-53
2022/01/27 09:42:07;;;;;;;15.50;5.30;;;0.80;99.90;;;;;;5154958;27;20452;-51
2022/01/27 09:44:36;;;;;;;15.18;4.63;;;0.90;99.90;;;;;;5155086;27;20825;-55
2022/01/27 09:47:06;;;;;;;10.23;3.85;;;0.90;99.90;;;;;;5154609;27;20686;-56
2022/01/27 09:49:37;;;;;;;10.05;4.10;;;1.00;99.90;;;;;;5155205;27;20461;-54
2022/01/27 09:52:05;;;;;;;11.52;4.50;;;1.00;99.90;;;;;;5156498;27;20428;-54
2022/01/27 09:54:32;;;;;;;14.75;5.15;;;1.00;99.90;;;;;;5154362;27;20448;-55
2022/01/27 09:56:59;;;;;;;13.70;6.40;;;1.10;99.90;;;;;;5152818;27;20497;-54
2022/01/27 09:59:28;;;;;;;9.10;3.70;;;1.20;99.90;;;;;;5155351;27;20425;-54
2022/01/27 10:01:59;;;;;;;10.05;3.67;;;1.20;99.90;;;;;;5155647;27;20488;-54
2022/01/27 10:04:48;;;;;;;8.15;3.20;;;1.20;99.90;;;;;;5154760;27;20523;-51
2022/01/27 10:07:16;;;;;;;8.33;3.53;;;1.20;99.90;;;;;;5156489;27;20911;-55
2022/01/27 10:10:00;;;;;;;8.85;3.50;;;1.30;99.90;;;;;;5153895;27;20879;-53
2022/01/27 10:12:29;;;;;;;10.95;3.75;;;1.30;99.90;;;;;;5155319;27;20467;-53
2022/01/27 10:15:04;;;;;;;7.72;3.20;;;1.30;99.90;;;;;;5154977;27;20416;-54
2022/01/27 10:17:34;;;;;;;10.77;3.28;;;1.40;99.90;;;;;;5157206;27;20436;-52
2022/01/27 10:20:02;;;;;;;6.05;2.20;;;1.50;99.90;;;;;;5155045;27;20417;-54
2022/01/27 10:22:29;;;;;;;8.40;2.80;;;1.70;99.90;;;;;;5155914;27;20425;-54
2022/01/27 10:25:08;;;;;;;7.88;3.70;;;1.90;99.90;;;;;;5169314;27;20451;-54
2022/01/27 10:27:56;;;;;;;7.93;2.42;;;1.80;99.90;;;;;;5176017;27;20426;-55
2022/01/27 10:33:14;;;;;;;6.90;2.53;;;1.70;99.90;;;;;;5174013;27;20407;-54
2022/01/27 10:35:41;;;;;;;7.30;2.20;;;1.70;99.90;;;;;;5174024;27;20517;-54
2022/01/27 10:38:12;;;;;;;8.33;2.90;;;1.70;99.90;;;;;;5149619;27;20452;-54
2022/01/27 10:40:40;;;;;;;6.78;2.10;;;1.80;99.90;;;;;;5151495;27;20512;-52
2022/01/27 10:43:11;;;;;;;7.47;3.17;;;1.80;99.90;;;;;;5151462;27;20452;-55
2022/01/27 10:45:56;;;;;;;5.38;2.60;;;1.80;99.90;;;;;;5153156;27;20417;-53
2022/01/27 10:48:26;;;;;;;6.30;2.20;;;1.80;99.90;;;;;;5152613;27;21026;-55
2022/01/27 10:51:01;;;;;;;7.50;2.70;;;1.80;99.90;;;;;;5151972;27;20523;-54
2022/01/27 10:53:47;;;;;;;7.35;2.40;;;1.90;99.90;;;;;;5150571;27;20903;-54
2022/01/27 10:56:18;;;;;;;5.70;2.30;;;1.90;99.90;;;;;;5143970;27;20460;-56
2022/01/27 10:58:45;;;;;;;7.37;2.80;;;1.90;99.90;;;;;;5152211;27;20451;-55
2022/01/27 11:01:22;;;;;;;5.97;2.22;;;1.90;99.90;;;;;;5152290;27;20424;-54
2022/01/27 11:03:51;;;;;;;7.30;2.30;;;2.00;99.90;;;;;;5153248;27;20417;-55
2022/01/27 11:06:20;;;;;;;5.10;2.20;;;2.00;99.90;;;;;;5151349;27;20444;-56
2022/01/27 11:08:48;;;;;;;7.47;2.85;;;2.00;99.90;;;;;;5152244;27;20448;-51
2022/01/27 11:11:16;;;;;;;6.30;2.00;;;2.10;99.90;;;;;;5149752;27;20405;-55
2022/01/27 11:13:46;;;;;;;5.90;2.13;;;2.10;99.90;;;;;;5155700;27;20899;-52
2022/01/27 11:16:17;;;;;;;6.10;1.80;;;2.20;99.90;;;;;;5157227;27;20470;-50
2022/01/27 11:18:46;;;;;;;6.22;2.50;;;2.30;99.90;;;;;;5156096;27;20428;-53
2022/01/27 11:21:29;;;;;;;7.00;2.38;;;2.30;99.90;;;;;;5156785;27;20503;-55
2022/01/27 11:24:04;;;;;;;5.55;2.33;;;2.30;99.90;;;;;;5158195;27;20758;-54
2022/01/27 11:26:33;;;;;;;9.00;3.50;;;2.30;99.90;;;;;;5158047;27;20541;-51
2022/01/27 11:29:00;;;;;;;9.90;3.60;;;2.30;99.90;;;;;;5155083;27;20465;-54
2022/01/27 11:31:50;;;;;;;8.35;3.25;;;2.40;99.90;;;;;;5155355;27;20504;-55
2022/01/27 11:34:17;;;;;;;6.97;2.80;;;2.40;99.90;;;;;;5156565;27;20497;-51
2022/01/27 11:37:02;;;;;;;9.52;4.18;;;2.40;99.90;;;;;;5155060;27;20424;-54
2022/01/27 11:39:52;;;;;;;8.65;3.80;;;2.50;99.90;;;;;;5155651;27;20447;-55
2022/01/27 11:42:22;;;;;;;7.30;3.17;;;2.60;99.90;;;;;;5155851;27;20455;-52
2022/01/27 11:44:49;;;;;;;7.00;2.30;;;2.60;99.90;;;;;;5152556;27;20425;-54
2022/01/27 11:47:22;;;;;;;6.97;2.20;;;2.70;99.90;;;;;;5149946;27;20451;-52
2022/01/27 11:50:00;;;;;;;6.85;3.55;;;2.70;99.90;;;;;;5157205;27;20716;-51
2022/01/27 11:52:29;;;;;;;6.77;2.80;;;2.80;99.90;;;;;;5156926;27;20427;-51
2022/01/27 11:54:58;;;;;;;7.15;2.08;;;2.90;99.90;;;;;;5157788;27;20477;-54
2022/01/27 11:57:45;;;;;;;6.60;2.90;;;2.80;99.90;;;;;;5155901;27;21061;-56
2022/01/27 12:00:16;;;;;;;6.23;3.00;;;2.80;99.90;;;;;;5156450;27;20618;-55
2022/01/27 12:03:13;;;;;;;7.05;2.92;;;2.80;99.90;;;;;;5154376;27;20413;-52
2022/01/27 12:05:42;;;;;;;7.30;2.90;;;2.80;99.90;;;;;;5154131;27;20724;-53
2022/01/27 12:08:25;;;;;;;7.22;2.90;;;2.90;99.90;;;;;;5143163;27;20843;-52
2022/01/27 12:10:58;;;;;;;9.70;4.03;;;2.80;99.90;;;;;;5153888;27;20421;-55
2022/01/27 12:13:58;;;;;;;8.50;3.15;;;2.80;99.90;;;;;;5152826;27;20639;-54
2022/01/27 12:19:14;;;;;;;9.70;3.90;;;2.90;99.90;;;;;;5138124;27;20397;-53
2022/01/27 12:21:49;;;;;;;5.45;2.22;;;2.90;99.90;;;;;;5153157;27;20432;-53
2022/01/27 12:24:22;;;;;;;7.03;3.03;;;3.00;99.90;;;;;;5155317;27;21024;-56
2022/01/27 12:26:53;;;;;;;8.85;4.10;;;3.00;99.90;;;;;;5156622;27;20427;-56
2022/01/27 12:29:39;;;;;;;7.85;3.78;;;3.10;99.90;;;;;;5157095;27;20429;-55
2022/01/27 12:32:08;;;;;;;5.72;2.83;;;3.10;99.90;;;;;;5156805;27;20444;-56
2022/01/27 12:34:38;;;;;;;7.47;3.10;;;3.20;99.90;;;;;;5164353;27;20743;-54
2022/01/27 12:37:08;;;;;;;10.07;3.75;;;3.20;99.90;;;;;;5156922;27;20866;-54
2022/01/27 12:39:37;;;;;;;9.82;3.03;;;3.30;99.90;;;;;;5152394;27;20428;-55
2022/01/27 12:42:07;;;;;;;8.27;3.20;;;3.30;99.90;;;;;;5148100;27;20798;-54
2022/01/27 12:44:35;;;;;;;9.00;3.15;;;3.30;99.90;;;;;;5157723;27;20424;-54
2022/01/27 12:47:06;;;;;;;6.60;2.53;;;3.30;99.90;;;;;;5156147;27;20847;-57
2022/01/27 12:49:41;;;;;;;5.95;2.53;;;3.30;99.90;;;;;;5157148;27;20433;-53
2022/01/27 12:52:11;;;;;;;6.93;2.75;;;3.40;99.90;;;;;;5156983;27;20412;-58
2022/01/27 12:54:39;;;;;;;9.52;3.55;;;3.30;99.90;;;;;;5157497;27;20428;-58
2022/01/27 12:57:07;;;;;;;6.10;3.10;;;3.40;99.90;;;;;;5155881;27;20460;-58
2022/01/27 12:59:37;;;;;;;6.80;3.25;;;3.40;99.90;;;;;;5157733;27;20460;-59
2022/01/27 13:02:06;;;;;;;6.75;3.20;;;3.40;99.90;;;;;;5156944;27;20512;-58
2022/01/27 13:04:35;;;;;;;7.53;3.92;;;3.40;99.90;;;;;;5156236;27;20430;-58
2022/01/27 13:07:05;;;;;;;7.05;3.15;;;3.40;99.90;;;;;;5156366;27;20724;-58
2022/01/27 13:09:34;;;;;;;8.55;2.85;;;3.60;99.90;;;;;;5155252;27;20465;-57
2022/01/27 13:12:17;;;;;;;7.20;2.85;;;3.70;99.90;;;;;;5157080;27;20839;-57
2022/01/27 13:15:03;;;;;;;7.35;2.90;;;3.60;99.90;;;;;;5157913;27;20481;-58
2022/01/27 13:17:35;;;;;;;7.72;3.03;;;3.70;99.90;;;;;;5155382;27;20851;-59
2022/01/27 13:20:26;;;;;;;6.82;2.92;;;3.70;99.90;;;;;;5156280;27;20722;-57
2022/01/27 13:23:02;;;;;;;5.82;2.60;;;3.80;99.90;;;;;;5146679;27;20410;-59
2022/01/27 13:25:40;;;;;;;4.85;2.80;;;3.90;99.90;;;;;;5135223;27;20454;-58
2022/01/27 13:28:09;;;;;;;6.00;2.93;;;3.90;99.90;;;;;;5144000;27;20475;-58
2022/01/27 13:30:37;;;;;;;7.00;3.42;;;3.90;99.90;;;;;;5142238;27;20417;-57
2022/01/27 13:33:09;;;;;;;8.33;3.07;;;3.90;99.90;;;;;;5145958;27;20862;-58
2022/01/27 13:35:36;;;;;;;7.70;3.20;;;3.90;99.90;;;;;;5151528;27;20424;-58
2022/01/27 13:38:20;;;;;;;6.97;3.22;;;4.10;99.90;;;;;;5152476;27;21074;-59